createdAt,value
2019-04-25T00:01:11.596Z,19.90
2019-04-25T00:03:43.582Z,19.90
2019-04-25T00:06:14.218Z,19.90
2019-04-25T00:08:45.233Z,19.80
2019-04-25T00:11:15.897Z,19.80
2019-04-25T00:13:46.453Z,19.80
2019-04-25T00:16:18.471Z,19.70
2019-04-25T00:18:51.784Z,19.70
2019-04-25T00:21:37.315Z,19.70
2019-04-25T00:24:14.821Z,19.70
2019-04-25T00:26:49.793Z,19.60
2019-04-25T00:29:22.034Z,19.60
2019-04-25T00:31:53.271Z,19.60
2019-04-25T00:34:24.371Z,19.60
2019-04-25T00:36:54.496Z,19.50
2019-04-25T00:39:24.623Z,19.50
2019-04-25T00:41:55.131Z,19.50
2019-04-25T00:44:25.268Z,19.50
2019-04-25T00:46:56.784Z,19.40
2019-04-25T00:49:27.089Z,19.40
2019-04-25T00:51:57.243Z,19.40
2019-04-25T00:54:27.380Z,19.40
2019-04-25T00:56:57.509Z,19.40
2019-04-25T00:59:37.554Z,19.40
2019-04-25T01:02:28.170Z,19.40
2019-04-25T01:04:58.224Z,19.40
2019-04-25T01:07:28.344Z,19.40
2019-04-25T01:09:58.418Z,19.30
2019-04-25T01:12:28.915Z,19.30
2019-04-25T01:15:01.509Z,19.30
2019-04-25T01:17:31.949Z,19.30
2019-04-25T01:20:02.060Z,19.30
2019-04-25T01:22:34.356Z,19.30
2019-04-25T01:25:06.615Z,19.30
2019-04-25T01:27:36.759Z,19.30
2019-04-25T01:30:09.135Z,19.30
2019-04-25T01:32:39.609Z,19.30
2019-04-25T01:35:18.149Z,19.30
2019-04-25T01:38:10.113Z,19.20
2019-04-25T01:40:53.414Z,19.20
2019-04-25T01:43:35.362Z,19.20
2019-04-25T01:46:06.399Z,19.20
2019-04-25T01:48:36.575Z,19.20
2019-04-25T01:51:06.714Z,19.20
2019-04-25T01:53:37.012Z,19.20
2019-04-25T01:56:07.875Z,19.10
2019-04-25T01:58:40.603Z,19.10
2019-04-25T02:01:11.697Z,19.10
2019-04-25T02:03:41.761Z,19.10
2019-04-25T02:06:13.424Z,19.10
2019-04-25T02:08:44.085Z,19.10
2019-04-25T02:11:36.381Z,19.00
2019-04-25T02:14:07.716Z,19.10
2019-04-25T02:16:38.309Z,19.00
2019-04-25T02:19:08.857Z,19.00
2019-04-25T02:21:38.917Z,19.00
2019-04-25T02:24:09.059Z,19.00
2019-04-25T02:26:39.188Z,19.00
2019-04-25T02:29:09.327Z,19.00
2019-04-25T02:31:39.468Z,19.00
2019-04-25T02:34:10.897Z,19.00
2019-04-25T02:36:41.432Z,19.00
2019-04-25T02:39:19.143Z,18.90
2019-04-25T02:41:49.378Z,18.90
2019-04-25T02:44:19.441Z,18.90
2019-04-25T02:47:11.630Z,18.90
2019-04-25T02:49:56.081Z,18.80
2019-04-25T02:52:48.060Z,18.80
2019-04-25T02:55:31.170Z,18.90
2019-04-25T02:57:50.021Z,18.90
2019-04-25T03:00:27.911Z,18.90
2019-04-25T03:02:59.169Z,18.80
2019-04-25T03:05:31.325Z,18.80
2019-04-25T03:08:05.386Z,18.80
2019-04-25T03:10:34.882Z,18.80
2019-04-25T03:13:10.299Z,18.80
2019-04-25T03:15:37.203Z,18.80
2019-04-25T03:18:11.012Z,18.80
2019-04-25T03:21:12.406Z,18.80
2019-04-25T03:23:42.675Z,18.80
2019-04-25T03:26:13.505Z,18.80
2019-04-25T03:28:43.997Z,18.80
2019-04-25T03:31:21.890Z,18.70
2019-04-25T03:33:46.374Z,18.70
2019-04-25T03:36:17.118Z,18.70
2019-04-25T03:38:48.216Z,18.70
2019-04-25T03:41:18.331Z,18.70
2019-04-25T03:43:48.429Z,18.70
2019-04-25T03:46:18.573Z,18.70
2019-04-25T03:48:48.677Z,18.70
2019-04-25T03:51:18.734Z,18.70
2019-04-25T03:53:49.292Z,18.70
2019-04-25T03:56:19.455Z,18.70
2019-04-25T03:58:49.518Z,18.70
2019-04-25T04:01:19.952Z,18.70
2019-04-25T04:03:50.080Z,18.70
2019-04-25T04:06:20.192Z,18.70
2019-04-25T04:08:50.352Z,18.70
2019-04-25T04:11:20.789Z,18.60
2019-04-25T04:13:50.914Z,18.70
2019-04-25T04:16:23.820Z,18.60
2019-04-25T04:18:56.250Z,18.60
2019-04-25T04:21:44.102Z,18.60
2019-04-25T04:24:34.195Z,18.60
2019-04-25T04:27:10.554Z,18.50
2019-04-25T04:29:41.136Z,18.60
2019-04-25T04:32:11.260Z,18.50
2019-04-25T04:34:41.306Z,18.60
2019-04-25T04:37:11.441Z,18.60
2019-04-25T04:39:43.604Z,18.60
2019-04-25T04:42:14.055Z,18.50
2019-04-25T04:44:45.140Z,18.50
2019-04-25T04:47:15.497Z,18.60
2019-04-25T04:49:45.907Z,18.60
2019-04-25T04:52:16.958Z,18.50
2019-04-25T04:54:48.301Z,18.50
2019-04-25T04:57:28.878Z,18.50
2019-04-25T04:59:50.532Z,18.50
2019-04-25T05:02:45.812Z,18.50
2019-04-25T05:05:34.416Z,18.50
2019-04-25T05:08:10.930Z,18.50
2019-04-25T05:10:41.196Z,18.50
2019-04-25T05:13:12.095Z,18.50
2019-04-25T05:15:42.977Z,18.50
2019-04-25T05:18:17.123Z,18.50
2019-04-25T05:20:46.874Z,18.50
2019-04-25T05:23:17.151Z,18.50
2019-04-25T05:25:47.478Z,18.50
2019-04-25T05:28:18.500Z,18.50
2019-04-25T05:31:15.928Z,18.50
2019-04-25T05:33:46.100Z,18.50
2019-04-25T05:36:17.536Z,18.50
2019-04-25T05:38:48.104Z,18.50
2019-04-25T05:41:31.372Z,18.50
2019-04-25T05:44:01.888Z,18.50
2019-04-25T05:46:31.968Z,18.50
2019-04-25T05:49:03.488Z,18.50
2019-04-25T05:51:33.988Z,18.50
2019-04-25T05:54:04.226Z,18.50
2019-04-25T05:56:34.593Z,18.60
2019-04-25T05:59:05.465Z,18.50
2019-04-25T06:01:36.109Z,18.50
2019-04-25T06:04:06.274Z,18.50
2019-04-25T06:06:36.911Z,18.60
2019-04-25T06:09:33.776Z,18.60
2019-04-25T06:12:23.753Z,18.60
2019-04-25T06:14:54.691Z,18.60
2019-04-25T06:17:34.290Z,18.60
2019-04-25T06:20:06.945Z,18.60
2019-04-25T06:23:03.258Z,18.70
2019-04-25T06:25:38.945Z,18.70
2019-04-25T06:28:07.919Z,18.70
2019-04-25T06:30:38.064Z,18.70
2019-04-25T06:33:09.410Z,18.80
2019-04-25T06:35:39.786Z,18.80
2019-04-25T06:38:09.862Z,18.80
2019-04-25T06:40:40.003Z,18.80
2019-04-25T06:43:10.415Z,18.90
2019-04-25T06:46:08.858Z,19.00
2019-04-25T06:48:58.784Z,19.00
2019-04-25T06:51:46.918Z,19.00
2019-04-25T06:54:17.118Z,19.00
2019-04-25T06:56:47.259Z,19.10
2019-04-25T06:59:18.975Z,19.10
2019-04-25T07:01:49.163Z,19.10
2019-04-25T07:04:19.217Z,19.10
2019-04-25T07:06:49.714Z,19.20
2019-04-25T07:09:19.901Z,19.30
2019-04-25T07:11:50.074Z,19.30
2019-04-25T07:14:20.206Z,19.30
2019-04-25T07:16:50.345Z,19.40
2019-04-25T07:19:20.479Z,19.40
2019-04-25T07:21:50.549Z,19.50
2019-04-25T07:24:20.707Z,19.50
2019-04-25T07:27:16.144Z,19.50
2019-04-25T07:30:11.469Z,19.50
2019-04-25T07:32:51.495Z,19.60
2019-04-25T07:35:23.313Z,19.60
2019-04-25T07:37:53.997Z,19.60
2019-04-25T07:40:26.249Z,19.60
2019-04-25T07:42:56.721Z,19.60
2019-04-25T07:45:27.108Z,19.60
2019-04-25T07:47:57.403Z,19.60
2019-04-25T07:50:28.565Z,19.70
2019-04-25T07:52:59.239Z,19.80
2019-04-25T07:55:29.751Z,19.80
2019-04-25T07:57:59.839Z,19.80
2019-04-25T08:00:31.366Z,19.90
2019-04-25T08:03:01.809Z,19.90
2019-04-25T08:05:35.160Z,20.00
2019-04-25T08:08:05.808Z,20.00
2019-04-25T08:10:57.744Z,20.10
2019-04-25T08:13:30.125Z,20.10
2019-04-25T08:16:03.421Z,20.20
2019-04-25T08:18:35.109Z,20.20
2019-04-25T08:21:05.779Z,20.20
2019-04-25T08:23:37.965Z,20.30
2019-04-25T08:26:08.753Z,20.30
2019-04-25T08:28:49.969Z,20.30
2019-04-25T08:31:10.981Z,20.40
2019-04-25T08:33:41.118Z,20.30
2019-04-25T08:36:11.199Z,20.40
2019-04-25T08:38:42.375Z,20.40
2019-04-25T08:41:14.045Z,20.50
2019-04-25T08:43:45.443Z,20.50
2019-04-25T08:46:15.641Z,20.60
2019-04-25T08:49:19.785Z,20.60
2019-04-25T08:51:50.602Z,20.70
2019-04-25T08:54:40.860Z,20.70
2019-04-25T08:57:14.720Z,20.70
2019-04-25T08:59:56.615Z,20.80
2019-04-25T09:02:43.545Z,20.80
2019-04-25T09:05:39.023Z,20.90
2019-04-25T09:08:09.274Z,20.90
2019-04-25T09:10:40.170Z,20.90
2019-04-25T09:13:10.871Z,21.00
2019-04-25T09:15:41.332Z,21.10
2019-04-25T09:18:11.457Z,21.10
2019-04-25T09:20:42.897Z,21.20
2019-04-25T09:23:13.752Z,21.20
2019-04-25T09:25:45.954Z,21.20
2019-04-25T09:28:15.763Z,21.30
2019-04-25T09:30:46.018Z,21.30
2019-04-25T09:33:16.306Z,21.30
2019-04-25T09:35:46.499Z,21.40
2019-04-25T09:38:16.679Z,21.40
2019-04-25T09:40:47.191Z,21.40
2019-04-25T09:43:17.676Z,21.50
2019-04-25T09:46:08.400Z,21.50
2019-04-25T09:48:44.654Z,21.50
2019-04-25T09:51:37.530Z,21.50
2019-04-25T09:54:26.907Z,21.50
2019-04-25T09:57:03.730Z,21.60
2019-04-25T09:59:35.329Z,21.60
2019-04-25T10:02:07.552Z,21.60
2019-04-25T10:04:37.890Z,21.70
2019-04-25T10:07:08.272Z,21.70
2019-04-25T10:09:38.435Z,21.80
2019-04-25T10:12:08.564Z,21.90
2019-04-25T10:15:11.626Z,22.00
2019-04-25T10:17:41.650Z,22.00
2019-04-25T10:20:14.617Z,22.00
2019-04-25T10:22:48.592Z,22.10
2019-04-25T10:25:19.454Z,22.10
2019-04-25T10:27:49.904Z,22.10
2019-04-25T10:30:23.557Z,22.10
2019-04-25T10:32:54.399Z,22.20
2019-04-25T10:35:25.875Z,22.20
2019-04-25T10:37:55.957Z,22.30
2019-04-25T10:40:28.163Z,22.30
2019-04-25T10:42:58.706Z,22.50
2019-04-25T10:45:28.814Z,22.50
2019-04-25T10:48:00.119Z,22.50
2019-04-25T10:50:30.184Z,22.60
2019-04-25T10:53:00.340Z,22.60
2019-04-25T10:55:30.384Z,22.70
2019-04-25T10:58:00.550Z,22.60
2019-04-25T11:00:36.277Z,22.70
2019-04-25T11:03:26.474Z,22.70
2019-04-25T11:05:57.514Z,22.80
2019-04-25T11:08:27.648Z,22.80
2019-04-25T11:10:58.636Z,22.70
2019-04-25T11:13:30.255Z,22.80
2019-04-25T11:16:00.584Z,22.70
2019-04-25T11:18:30.781Z,22.80
2019-04-25T11:21:00.893Z,22.80
2019-04-25T11:23:30.982Z,22.80
2019-04-25T11:26:01.178Z,22.80
2019-04-25T11:28:31.700Z,22.90
2019-04-25T11:31:04.165Z,22.90
2019-04-25T11:33:36.081Z,22.90
2019-04-25T11:36:06.576Z,23.00
2019-04-25T11:38:47.444Z,23.00
2019-04-25T11:41:18.492Z,23.10
2019-04-25T11:43:48.765Z,23.10
2019-04-25T11:46:19.546Z,23.20
2019-04-25T11:48:50.435Z,23.20
2019-04-25T11:51:20.657Z,23.20
2019-04-25T11:53:51.552Z,23.20
2019-04-25T11:56:21.801Z,23.20
2019-04-25T11:58:53.492Z,23.20
2019-04-25T12:01:24.348Z,23.20
2019-04-25T12:03:56.086Z,23.30
2019-04-25T12:06:26.358Z,23.20
2019-04-25T12:08:56.480Z,23.20
2019-04-25T12:11:26.640Z,23.20
2019-04-25T12:13:57.264Z,23.20
2019-04-25T12:16:27.682Z,23.30
2019-04-25T12:18:57.859Z,23.40
2019-04-25T12:21:27.918Z,23.40
2019-04-25T12:23:58.060Z,23.50
2019-04-25T12:26:28.139Z,23.40
2019-04-25T12:28:58.310Z,23.40
2019-04-25T12:31:28.876Z,23.40
2019-04-25T12:33:59.459Z,23.40
2019-04-25T12:36:29.569Z,23.50
2019-04-25T12:38:59.731Z,23.60
2019-04-25T12:41:30.201Z,23.60
2019-04-25T12:44:19.276Z,23.60
2019-04-25T12:46:50.477Z,23.60
2019-04-25T12:49:21.072Z,23.60
2019-04-25T12:51:51.230Z,23.60
2019-04-25T12:54:23.780Z,23.60
2019-04-25T12:56:54.046Z,23.60
2019-04-25T12:59:24.491Z,23.60
2019-04-25T13:01:55.819Z,23.60
2019-04-25T13:04:26.283Z,23.60
2019-04-25T13:06:56.347Z,23.60
2019-04-25T13:09:26.701Z,23.60
2019-04-25T13:11:56.853Z,23.60
2019-04-25T13:14:26.940Z,23.60
2019-04-25T13:16:57.061Z,23.60
2019-04-25T13:19:27.303Z,23.60
2019-04-25T13:21:57.972Z,23.60
2019-04-25T13:24:28.893Z,23.60
2019-04-25T13:27:07.917Z,23.60
2019-04-25T13:30:05.520Z,23.60
2019-04-25T13:33:08.572Z,23.60
2019-04-25T13:35:48.861Z,23.60
2019-04-25T13:38:19.367Z,23.60
2019-04-25T13:40:49.509Z,23.60
2019-04-25T13:43:19.622Z,23.60
2019-04-25T13:45:50.171Z,23.60
2019-04-25T13:48:20.291Z,23.60
2019-04-25T13:50:50.477Z,23.70
2019-04-25T13:53:20.907Z,23.70
2019-04-25T13:55:51.380Z,23.70
2019-04-25T13:58:22.224Z,23.80
2019-04-25T14:00:52.985Z,23.80
2019-04-25T14:03:23.783Z,23.90
2019-04-25T14:05:54.060Z,23.90
2019-04-25T14:08:25.607Z,23.90
2019-04-25T14:10:55.815Z,23.90
2019-04-25T14:13:26.547Z,23.80
2019-04-25T14:16:08.762Z,23.80
2019-04-25T14:19:14.787Z,23.80
2019-04-25T14:21:46.399Z,23.70
2019-04-25T14:24:20.632Z,23.70
2019-04-25T14:26:50.375Z,23.70
2019-04-25T14:29:21.454Z,23.70
2019-04-25T14:31:53.366Z,23.80
2019-04-25T14:34:26.460Z,23.70
2019-04-25T14:36:56.781Z,23.80
2019-04-25T14:39:27.427Z,23.80
2019-04-25T14:41:57.842Z,23.80
2019-04-25T14:44:28.630Z,23.80
2019-04-25T14:46:58.815Z,23.80
2019-04-25T14:49:28.963Z,23.80
2019-04-25T14:51:59.023Z,23.80
2019-04-25T14:54:36.919Z,23.90
2019-04-25T14:57:11.335Z,23.90
2019-04-25T14:59:41.450Z,23.90
2019-04-25T15:02:12.012Z,23.90
2019-04-25T15:04:42.090Z,23.90
2019-04-25T15:07:12.262Z,23.90
2019-04-25T15:09:42.714Z,24.00
2019-04-25T15:12:13.197Z,24.00
2019-04-25T15:14:43.270Z,24.00
2019-04-25T15:17:13.510Z,24.00
2019-04-25T15:19:45.491Z,24.00
2019-04-25T15:22:15.664Z,24.10
2019-04-25T15:24:45.791Z,24.10
2019-04-25T15:27:16.331Z,24.10
2019-04-25T15:29:47.126Z,24.20
2019-04-25T15:32:20.607Z,24.20
2019-04-25T15:34:55.020Z,24.30
2019-04-25T15:37:33.672Z,24.30
2019-04-25T15:40:13.066Z,24.30
2019-04-25T15:43:20.978Z,24.30
2019-04-25T15:45:56.323Z,24.30
2019-04-25T15:48:26.446Z,24.40
2019-04-25T15:50:56.866Z,24.30
2019-04-25T15:53:27.048Z,24.30
2019-04-25T15:55:57.114Z,24.30
2019-04-25T15:58:27.642Z,24.30
2019-04-25T16:00:59.034Z,24.30
2019-04-25T16:03:29.532Z,24.30
2019-04-25T16:05:59.853Z,24.40
2019-04-25T16:08:30.757Z,24.40
2019-04-25T16:11:01.072Z,24.40
2019-04-25T16:13:32.256Z,24.40
2019-04-25T16:16:02.448Z,24.30
2019-04-25T16:18:33.161Z,24.30
2019-04-25T16:21:03.617Z,24.30
2019-04-25T16:23:34.311Z,24.30
2019-04-25T16:26:05.987Z,24.30
2019-04-25T16:28:36.134Z,24.30
2019-04-25T16:31:08.034Z,24.30
2019-04-25T16:33:38.157Z,24.30
2019-04-25T16:36:09.299Z,24.30
2019-04-25T16:38:41.119Z,24.40
2019-04-25T16:41:12.022Z,24.30
2019-04-25T16:43:46.996Z,24.30
2019-04-25T16:46:18.318Z,24.30
2019-04-25T16:48:48.454Z,24.30
2019-04-25T16:51:18.601Z,24.30
2019-04-25T16:53:49.212Z,24.30
2019-04-25T16:56:19.827Z,24.30
2019-04-25T16:58:49.867Z,24.20
2019-04-25T17:01:20.038Z,24.20
2019-04-25T17:03:50.464Z,24.30
2019-04-25T17:06:20.625Z,24.30
2019-04-25T17:08:50.762Z,24.20
2019-04-25T17:11:21.105Z,24.30
2019-04-25T17:14:07.416Z,24.30
2019-04-25T17:16:52.974Z,24.20
2019-04-25T17:19:30.475Z,24.20
2019-04-25T17:22:00.860Z,24.20
2019-04-25T17:24:32.489Z,24.20
2019-04-25T17:27:02.675Z,24.20
2019-04-25T17:29:33.157Z,24.20
2019-04-25T17:32:32.147Z,24.10
2019-04-25T17:35:18.472Z,24.10
2019-04-25T17:37:59.784Z,24.10
2019-04-25T17:40:31.325Z,24.10
2019-04-25T17:43:11.006Z,24.00
2019-04-25T17:45:35.450Z,24.00
2019-04-25T17:48:06.006Z,24.00
2019-04-25T17:50:37.471Z,24.00
2019-04-25T17:53:07.981Z,24.00
2019-04-25T17:55:38.147Z,24.00
2019-04-25T17:58:08.918Z,24.00
2019-04-25T18:00:41.996Z,23.90
2019-04-25T18:03:12.816Z,23.90
2019-04-25T18:05:43.827Z,23.90
2019-04-25T18:08:14.501Z,23.90
2019-04-25T18:10:44.660Z,23.90
2019-04-25T18:13:14.791Z,23.90
2019-04-25T18:16:00.430Z,23.80
2019-04-25T18:18:41.423Z,23.90
2019-04-25T18:21:11.640Z,23.80
2019-04-25T18:24:06.533Z,23.70
2019-04-25T18:26:45.626Z,23.80
2019-04-25T18:29:16.661Z,23.80
2019-04-25T18:31:46.867Z,23.70
2019-04-25T18:34:26.775Z,23.70
2019-04-25T18:37:14.938Z,23.70
2019-04-25T18:39:53.245Z,23.70
2019-04-25T18:42:36.454Z,23.70
2019-04-25T18:45:08.167Z,23.70
2019-04-25T18:47:38.764Z,23.60
2019-04-25T18:50:11.373Z,23.60
2019-04-25T18:52:53.995Z,23.60
2019-04-25T18:55:33.249Z,23.60
2019-04-25T18:58:09.025Z,23.60
2019-04-25T19:01:06.970Z,23.60
2019-04-25T19:03:58.673Z,23.50
2019-04-25T19:06:28.974Z,23.50
2019-04-25T19:08:59.121Z,23.50
2019-04-25T19:11:29.556Z,23.50
2019-04-25T19:13:59.700Z,23.40
2019-04-25T19:16:29.854Z,23.40
2019-04-25T19:19:00.277Z,23.40
2019-04-25T19:21:33.170Z,23.40
2019-04-25T19:24:02.856Z,23.40
2019-04-25T19:26:32.948Z,23.40
2019-04-25T19:29:03.179Z,23.40
2019-04-25T19:31:34.112Z,23.40
2019-04-25T19:34:04.563Z,23.40
2019-04-25T19:36:35.054Z,23.40
2019-04-25T19:39:06.770Z,23.40
2019-04-25T19:41:45.068Z,23.40
2019-04-25T19:44:20.007Z,23.40
2019-04-25T19:46:51.492Z,23.30
2019-04-25T19:49:21.654Z,23.30
2019-04-25T19:51:52.206Z,23.30
2019-04-25T19:54:22.733Z,23.30
2019-04-25T19:56:52.923Z,23.30
2019-04-25T19:59:23.461Z,23.30
2019-04-25T20:01:55.200Z,23.30
2019-04-25T20:04:32.151Z,23.30
2019-04-25T20:07:17.484Z,23.20
2019-04-25T20:10:06.588Z,23.20
2019-04-25T20:12:41.094Z,23.20
2019-04-25T20:15:12.089Z,23.20
2019-04-25T20:17:43.248Z,23.20
2019-04-25T20:20:15.456Z,23.20
2019-04-25T20:22:46.167Z,23.20
2019-04-25T20:25:16.620Z,23.10
2019-04-25T20:27:46.971Z,23.10
2019-04-25T20:30:17.104Z,23.10
2019-04-25T20:32:47.651Z,23.10
2019-04-25T20:35:17.886Z,23.10
2019-04-25T20:37:47.949Z,23.00
2019-04-25T20:40:18.240Z,23.00
2019-04-25T20:42:49.877Z,23.00
2019-04-25T20:45:20.683Z,23.00
2019-04-25T20:47:52.068Z,23.00
2019-04-25T20:50:22.385Z,23.00
2019-04-25T20:52:52.826Z,23.00
2019-04-25T20:55:23.661Z,22.90
2019-04-25T20:57:55.487Z,22.90
2019-04-25T21:00:43.847Z,22.90
2019-04-25T21:03:13.999Z,22.90
2019-04-25T21:05:45.327Z,22.90
2019-04-25T21:08:15.391Z,22.80
2019-04-25T21:10:45.977Z,22.80
2019-04-25T21:13:22.295Z,22.80
2019-04-25T21:16:06.408Z,22.80
2019-04-25T21:18:51.499Z,22.80
2019-04-25T21:21:23.319Z,22.80
2019-04-25T21:23:53.784Z,22.80
2019-04-25T21:26:23.933Z,22.70
2019-04-25T21:28:54.351Z,22.80
2019-04-25T21:31:25.179Z,22.80
2019-04-25T21:33:55.484Z,22.70
2019-04-25T21:36:25.910Z,22.70
2019-04-25T21:38:56.862Z,22.70
2019-04-25T21:41:49.497Z,22.70
2019-04-25T21:44:20.303Z,22.70
2019-04-25T21:46:53.695Z,22.70
2019-04-25T21:49:25.319Z,22.60
2019-04-25T21:51:55.698Z,22.60
2019-04-25T21:54:25.832Z,22.60
2019-04-25T21:56:57.624Z,22.60
2019-04-25T21:59:28.149Z,22.60
2019-04-25T22:02:00.183Z,22.60
2019-04-25T22:04:38.763Z,22.60
2019-04-25T22:07:03.001Z,22.50
2019-04-25T22:09:33.596Z,22.50
2019-04-25T22:12:06.085Z,22.50
2019-04-25T22:14:36.162Z,22.50
2019-04-25T22:17:06.889Z,22.50
2019-04-25T22:19:37.525Z,22.40
2019-04-25T22:22:08.593Z,22.40
2019-04-25T22:24:38.728Z,22.40
2019-04-25T22:27:13.067Z,22.40
2019-04-25T22:29:44.769Z,22.40
2019-04-25T22:32:42.900Z,22.40
2019-04-25T22:35:35.193Z,22.40
2019-04-25T22:38:06.388Z,22.40
2019-04-25T22:40:37.161Z,22.40
2019-04-25T22:43:08.428Z,22.40
2019-04-25T22:45:39.159Z,22.40
2019-04-25T22:48:09.642Z,22.40
2019-04-25T22:50:40.497Z,22.40
2019-04-25T22:53:21.555Z,22.40
2019-04-25T22:55:43.166Z,22.40
2019-04-25T22:58:13.309Z,22.40
2019-04-25T23:00:43.737Z,22.40
2019-04-25T23:03:30.758Z,22.30
2019-04-25T23:06:01.277Z,22.30
2019-04-25T23:08:32.621Z,22.30
2019-04-25T23:11:02.863Z,22.30
2019-04-25T23:13:33.401Z,22.30
2019-04-25T23:16:05.057Z,22.30
2019-04-25T23:18:35.359Z,22.30
2019-04-25T23:21:06.698Z,22.30
2019-04-25T23:23:37.029Z,22.30
2019-04-25T23:26:22.415Z,22.30
2019-04-25T23:28:54.219Z,22.30
2019-04-25T23:31:27.905Z,22.20
2019-04-25T23:33:58.226Z,22.20
2019-04-25T23:36:28.292Z,22.20
2019-04-25T23:38:58.313Z,22.20
2019-04-25T23:41:29.074Z,22.20
2019-04-25T23:43:59.203Z,22.20
2019-04-25T23:46:29.639Z,22.20
2019-04-25T23:48:59.691Z,22.20
2019-04-25T23:51:30.151Z,22.20
2019-04-25T23:54:00.783Z,22.10
2019-04-25T23:56:31.311Z,22.10
2019-04-25T23:59:01.651Z,22.10
